Time;durP1;ratioP1;P1;durP2;ratioP2;P2;SDS_P1;SDS_P2;PMS_P1;PMS_P2;Temp;Humidity;BMP_temperature;BMP_pressure;BME280_temperature;BME280_humidity;BME280_pressure;Samples;Min_cycle;Max_cycle;Signal;HPM_P1;HPM_P2
2024/02/15 00:00:01;;;;;;;0.00;0.00;;;;;;;9.82;87.00;101293.28;15798673;28;20048;-47
2024/02/15 00:07:40;;;;;;;0.35;0.32;;;;;;;9.72;87.32;101293.59;15801712;28;20044;-49
2024/02/15 00:15:19;;;;;;;0.13;0.13;;;;;;;9.78;87.16;101294.69;15803772;28;20592;-45
2024/02/15 00:22:53;;;;;;;0.57;0.47;;;;;;;9.24;88.70;101295.97;15783891;28;20571;-48
2024/02/15 00:30:31;;;;;;;0.32;0.32;;;;;;;9.38;88.21;101294.28;15801568;28;20067;-45
2024/02/15 00:38:07;;;;;;;0.65;0.65;;;;;;;9.49;88.24;101290.25;15795642;28;20036;-44
2024/02/15 00:45:43;;;;;;;0.00;0.00;;;;;;;9.43;88.75;101291.84;15802320;28;20127;-48
2024/02/15 00:53:16;;;;;;;0.68;0.60;;;;;;;9.64;88.76;101301.75;15800452;28;20040;-47
2024/02/15 01:00:51;;;;;;;0.70;0.45;;;;;;;8.92;89.68;101236.44;15795279;28;20115;-46
2024/02/15 01:08:25;;;;;;;1.23;0.80;;;;;;;9.51;89.59;101297.06;15795102;28;20047;-43
2024/02/15 01:16:03;;;;;;;0.20;0.20;;;;;;;9.53;89.11;101296.91;15794134;28;20097;-49
2024/02/15 01:23:39;;;;;;;0.20;0.20;;;;;;;9.33;89.76;101288.66;15797334;28;20032;-48
2024/02/15 01:31:16;;;;;;;;;;;;;;;9.47;90.40;101287.78;15789810;28;20120;-46
2024/02/15 01:38:50;;;;;;;0.00;0.00;;;;;;;9.51;90.11;101283.69;15798227;28;19924;-45
2024/02/15 01:46:25;;;;;;;;;;;;;;;9.49;90.12;101284.91;15800439;28;20042;-48
2024/02/15 01:54:01;;;;;;;0.10;0.10;;;;;;;9.56;90.07;101281.28;15779300;28;19943;-49
2024/02/15 02:01:36;;;;;;;0.10;0.10;;;;;;;9.84;89.39;101276.00;15767058;28;20044;-47
2024/02/15 02:09:14;;;;;;;0.10;0.10;;;;;;;9.30;91.02;101267.59;15797359;28;20122;-47
2024/02/15 02:16:49;;;;;;;0.30;0.30;;;;;;;9.53;90.21;101267.44;15776380;28;20501;-45
2024/02/15 02:24:24;;;;;;;0.00;0.00;;;;;;;9.32;91.03;101266.38;15774098;28;20059;-46
2024/02/15 02:31:59;;;;;;;0.55;0.55;;;;;;;9.61;90.28;101267.31;15792012;28;20044;-47
2024/02/15 02:39:34;;;;;;;0.00;0.00;;;;;;;9.43;91.05;101267.75;15793363;28;20115;-49
2024/02/15 02:47:13;;;;;;;0.00;0.00;;;;;;;9.85;88.38;101268.78;15788638;28;20152;-48
2024/02/15 02:54:46;;;;;;;3.40;1.20;;;;;;;9.49;89.83;101268.81;15795333;28;20061;-47
2024/02/15 03:02:22;;;;;;;0.80;0.75;;;;;;;9.76;88.98;101273.44;15782532;28;20036;-45
2024/02/15 03:09:56;;;;;;;0.38;0.38;;;;;;;9.59;89.13;101267.47;15788740;28;20038;-47
2024/02/15 03:17:33;;;;;;;0.08;0.08;;;;;;;9.86;88.96;101273.09;15806256;28;20040;-46
2024/02/15 03:25:08;;;;;;;0.00;0.00;;;;;;;9.59;89.91;101262.13;15806064;28;20044;-46
2024/02/15 03:32:43;;;;;;;0.52;0.52;;;;;;;9.89;89.33;101270.06;15804752;28;20048;-45
2024/02/15 03:40:21;;;;;;;0.20;0.20;;;;;;;9.60;90.25;101260.28;15799946;28;20032;-47
2024/02/15 03:47:57;;;;;;;0.22;0.22;;;;;;;9.77;89.53;101271.59;15802563;28;20040;-45
2024/02/15 03:55:33;;;;;;;0.22;0.17;;;;;;;9.92;89.56;101272.34;15803836;28;20040;-45
2024/02/15 04:03:09;;;;;;;0.57;0.57;;;;;;;9.83;89.58;101273.47;15800004;28;20100;-49
2024/02/15 04:10:42;;;;;;;1.75;0.63;;;;;;;9.91;89.69;101271.50;15800449;28;20071;-48
2024/02/15 04:18:20;;;;;;;0.95;0.95;;;;;;;9.71;90.20;101270.50;15802181;28;20036;-48
2024/02/15 04:25:54;;;;;;;0.00;0.00;;;;;;;9.87;89.74;101272.91;15800629;28;20138;-45
2024/02/15 04:33:35;;;;;;;1.17;0.77;;;;;;;9.61;90.85;101272.66;15798399;28;20043;-43
2024/02/15 04:41:13;;;;;;;0.63;0.52;;;;;;;9.82;90.08;101269.16;15783387;28;20036;-44
2024/02/15 04:48:49;;;;;;;0.80;0.38;;;;;;;10.13;89.12;101277.69;15786345;28;20036;-44
2024/02/15 04:56:27;;;;;;;0.57;0.57;;;;;;;10.30;87.46;101269.38;15799230;28;20043;-45
2024/02/15 05:04:07;;;;;;;;;;;;;;;10.25;87.40;101269.13;15779157;28;20052;-46
2024/02/15 05:11:41;;;;;;;0.52;0.52;;;;;;;10.22;88.12;101268.47;15797460;28;19920;-49
2024/02/15 05:19:17;;;;;;;0.32;0.13;;;;;;;10.15;87.10;101270.25;15780500;28;20044;-43
2024/02/15 05:26:52;;;;;;;0.82;0.80;;;;;;;10.18;88.16;101275.25;15798990;28;20048;-43
2024/02/15 05:34:28;;;;;;;1.48;0.57;;;;;;;10.34;87.43;101278.69;15781108;28;20111;-47
2024/02/15 05:42:02;;;;;;;0.28;0.28;;;;;;;10.65;86.24;101287.16;15780709;28;20439;-47
2024/02/15 05:49:38;;;;;;;0.10;0.10;;;;;;;10.38;87.39;101280.78;15796974;28;20036;-47
2024/02/15 05:57:16;;;;;;;0.47;0.47;;;;;;;10.54;86.46;101276.13;15797320;28;20044;-45
2024/02/15 06:04:53;;;;;;;0.10;0.10;;;;;;;10.47;87.67;101279.59;15780059;28;20089;-46
2024/02/15 06:12:29;;;;;;;0.10;0.10;;;;;;;10.31;87.91;101284.47;15794519;28;20124;-44
2024/02/15 06:20:05;;;;;;;0.75;0.75;;;;;;;10.20;88.02;101283.91;15791975;28;20044;-46
2024/02/15 06:27:40;;;;;;;3.03;1.13;;;;;;;10.19;89.15;101284.94;15792470;28;20044;-45
2024/02/15 06:43:10;;;;;;;0.95;0.20;;;;;;;10.32;87.78;101302.22;15809012;28;20032;-43
2024/02/15 06:50:48;;;;;;;0.60;0.60;;;;;;;10.34;88.14;101313.56;15792161;28;20075;-49
2024/02/15 06:58:23;;;;;;;13.15;1.65;;;;;;;10.58;87.20;101321.16;15789719;28;20059;-45
2024/02/15 07:05:58;;;;;;;0.00;0.00;;;;;;;10.17;89.70;101332.59;15806729;28;20052;-46
2024/02/15 07:13:31;;;;;;;0.08;0.08;;;;;;;10.45;87.92;101329.16;15788711;28;20032;-46
2024/02/15 07:21:13;;;;;;;0.17;0.17;;;;;;;10.18;89.67;101331.56;15806723;28;20040;-46
2024/02/15 07:28:48;;;;;;;0.13;0.13;;;;;;;10.24;89.33;101321.94;15769220;28;20039;-47
2024/02/15 07:36:25;;;;;;;1.48;0.38;;;;;;;10.47;88.44;101316.34;15782627;28;20040;-51
2024/02/15 07:44:00;;;;;;;0.47;0.47;;;;;;;10.52;88.38;101324.66;15782769;28;20040;-48
2024/02/15 07:51:39;;;;;;;1.95;0.50;;;;;;;10.58;88.38;101325.72;15801865;28;20047;-45
2024/02/15 07:59:13;;;;;;;0.10;0.10;;;;;;;10.70;88.21;101318.78;15781547;28;20485;-48
2024/02/15 08:06:48;;;;;;;0.17;0.17;;;;;;;10.67;88.79;101324.53;15776722;28;20097;-45
2024/02/15 08:14:22;;;;;;;0.98;0.47;;;;;;;10.78;88.72;101328.56;15764019;28;20052;-46
2024/02/15 08:21:57;;;;;;;0.00;0.00;;;;;;;10.65;89.02;101323.91;15740095;28;20044;-49
2024/02/15 08:29:30;;;;;;;0.40;0.35;;;;;;;10.95;87.61;101330.69;15739197;28;20497;-49
2024/02/15 08:37:11;;;;;;;1.48;0.90;;;;;;;10.56;88.98;101331.28;15738080;28;20037;-46
2024/02/15 08:44:46;;;;;;;1.10;0.38;;;;;;;11.03;87.87;101336.94;15741491;28;20093;-51
2024/02/15 08:52:21;;;;;;;2.28;1.45;;;;;;;11.16;87.74;101319.03;15796997;28;20032;-45
2024/02/15 08:59:55;;;;;;;1.67;0.63;;;;;;;11.19;88.22;101323.16;15777158;28;20056;-50
2024/02/15 09:07:33;;;;;;;0.65;0.65;;;;;;;11.51;87.02;101332.41;15790026;28;20040;-45
2024/02/15 09:15:08;;;;;;;0.63;0.38;;;;;;;11.20;87.77;101336.44;15778233;28;20040;-48
2024/02/15 09:22:49;;;;;;;0.20;0.20;;;;;;;11.40;86.75;101323.06;15798031;28;20040;-49
2024/02/15 09:30:27;;;;;;;0.32;0.30;;;;;;;11.30;87.08;101340.59;15778681;28;20665;-46
2024/02/15 09:38:02;;;;;;;0.28;0.28;;;;;;;11.64;86.80;101337.00;15793367;28;20040;-47
2024/02/15 09:45:37;;;;;;;0.30;0.30;;;;;;;11.80;85.87;101342.03;15768087;28;20067;-46
2024/02/15 09:53:16;;;;;;;0.13;0.13;;;;;;;12.25;85.12;101350.38;15733196;28;20523;-49
2024/02/15 10:00:51;;;;;;;0.38;0.38;;;;;;;12.43;84.29;101355.97;15796324;22;20040;-55
2024/02/15 10:08:26;;;;;;;0.68;0.68;;;;;;;12.43;83.92;101353.28;15796702;28;20040;-53
2024/02/15 10:16:00;;;;;;;0.63;0.63;;;;;;;12.73;83.68;101344.78;15813157;28;20036;-53
2024/02/15 10:23:35;;;;;;;0.00;0.00;;;;;;;12.29;84.27;101350.78;15808820;28;20123;-52
2024/02/15 10:31:13;;;;;;;0.38;0.35;;;;;;;12.28;84.52;101349.16;15813170;28;20086;-52
2024/02/15 10:38:50;;;;;;;0.00;0.00;;;;;;;12.37;84.50;101347.91;15798262;28;20080;-54
2024/02/15 10:46:24;;;;;;;0.10;0.10;;;;;;;12.61;82.70;101346.44;15812994;28;20420;-52
2024/02/15 10:54:05;;;;;;;0.00;0.00;;;;;;;12.46;82.86;101309.78;15791174;28;20093;-53
2024/02/15 11:01:41;;;;;;;0.00;0.00;;;;;;;12.57;83.04;101345.19;15806299;28;20047;-51
2024/02/15 11:09:19;;;;;;;0.05;0.05;;;;;;;12.93;81.43;101333.97;15751132;28;20182;-52
2024/02/15 11:16:57;;;;;;;0.00;0.00;;;;;;;13.13;80.86;101332.03;15791537;28;20051;-53
2024/02/15 11:24:35;;;;;;;0.10;0.10;;;;;;;12.78;81.86;101320.72;15804364;28;20048;-52
2024/02/15 11:32:09;;;;;;;0.00;0.00;;;;;;;12.92;81.04;101308.88;15804289;28;20081;-52
2024/02/15 11:39:46;;;;;;;0.00;0.00;;;;;;;13.28;80.04;101324.53;15804696;28;20055;-53
2024/02/15 11:47:22;;;;;;;0.30;0.30;;;;;;;13.02;81.05;101328.13;15783227;28;20128;-52
2024/02/15 11:55:09;;;;;;;0.20;0.20;;;;;;;13.03;80.34;101329.78;15743968;28;20049;-52
2024/02/15 12:18:42;;;;;;;0.00;0.00;;;;;;;12.91;81.41;101295.59;15805504;28;20048;-52
2024/02/15 12:26:23;;;;;;;0.22;0.22;;;;;;;13.20;80.97;101284.31;15769558;28;20048;-50
2024/02/15 12:34:06;;;;;;;1.23;0.75;;;;;;;13.25;80.38;101289.09;15803206;28;20048;-53
2024/02/15 12:41:48;;;;;;;0.17;0.17;;;;;;;13.47;78.74;101278.81;15800423;28;20044;-53
2024/02/15 12:49:30;;;;;;;0.10;0.10;;;;;;;13.78;77.27;101259.94;15795878;28;20048;-53
2024/02/15 12:57:10;;;;;;;0.00;0.00;;;;;;;14.12;76.27;101263.19;15791174;28;20044;-53
2024/02/15 13:04:58;;;;;;;0.95;0.85;;;;;;;13.72;76.79;101262.69;15978459;27;20442;-52
2024/02/15 13:12:34;;;;;;;0.03;0.03;;;;;;;13.62;77.14;101252.38;15925869;27;20619;-52
2024/02/15 13:20:13;;;;;;;0.00;0.00;;;;;;;13.77;76.87;101247.50;15913051;27;20070;-49
2024/02/15 13:27:47;;;;;;;0.00;0.00;;;;;;;13.74;77.23;101245.22;15914706;27;20044;-53
2024/02/15 13:35:23;;;;;;;0.05;0.05;;;;;;;14.04;76.42;101256.22;15916846;28;20044;-50
2024/02/15 13:42:58;;;;;;;0.30;0.30;;;;;;;13.63;77.88;101247.81;15918601;27;20131;-52
2024/02/15 13:50:33;;;;;;;0.00;0.00;;;;;;;13.79;77.66;101248.09;15919769;27;20134;-52
2024/02/15 13:58:12;;;;;;;0.10;0.10;;;;;;;14.11;75.83;101234.53;15916756;27;20043;-52
2024/02/15 14:05:49;;;;;;;0.55;0.45;;;;;;;13.89;77.27;101231.41;15913492;27;20054;-52
2024/02/15 14:13:25;;;;;;;0.00;0.00;;;;;;;14.15;76.19;101226.84;15884560;27;20114;-52
2024/02/15 14:21:00;;;;;;;0.30;0.30;;;;;;;14.14;76.22;101226.00;15872949;28;20503;-50
2024/02/15 14:28:35;;;;;;;0.00;0.00;;;;;;;14.12;75.93;101211.06;15867906;28;20089;-53
2024/02/15 14:36:11;;;;;;;0.00;0.00;;;;;;;14.17;76.01;101206.66;15871969;28;20071;-51
2024/02/15 14:43:46;;;;;;;0.35;0.22;;;;;;;13.72;77.57;101217.66;15870883;28;20085;-52
2024/02/15 14:51:21;;;;;;;0.00;0.00;;;;;;;13.76;77.77;101221.56;15866178;28;20105;-55
2024/02/15 14:58:55;;;;;;;3.70;1.08;;;;;;;13.60;78.48;101216.69;15864103;28;20108;-51
2024/02/15 15:14:27;;;;;;;0.57;0.57;;;;;;;13.97;77.10;101236.53;15790162;28;20048;-50
2024/02/15 15:22:07;;;;;;;0.00;0.00;;;;;;;14.04;76.59;101223.00;15866882;28;20373;-49
2024/02/15 15:29:41;;;;;;;0.68;0.43;;;;;;;14.11;77.11;101218.34;15867833;28;20117;-52
2024/02/15 15:37:22;;;;;;;0.00;0.00;;;;;;;14.02;77.55;101225.91;15868354;27;20191;-50
2024/02/15 15:44:56;;;;;;;0.20;0.20;;;;;;;13.76;77.90;101226.13;15866749;28;20039;-51
2024/02/15 15:52:31;;;;;;;0.00;0.00;;;;;;;13.66;78.03;101225.78;15867234;28;20062;-52
2024/02/15 16:00:12;;;;;;;0.10;0.10;;;;;;;13.47;78.20;101220.28;15866958;28;20027;-52
2024/02/15 16:07:48;;;;;;;0.00;0.00;;;;;;;13.21;79.69;101225.84;15864636;28;20055;-52
2024/02/15 16:15:23;;;;;;;0.17;0.17;;;;;;;13.15;79.22;101224.84;15860317;28;20104;-54
2024/02/15 16:23:01;;;;;;;0.47;0.43;;;;;;;13.13;79.71;101224.22;15859541;28;20439;-49
2024/02/15 16:30:36;;;;;;;0.00;0.00;;;;;;;13.46;78.38;101231.31;15843789;28;20063;-55
2024/02/15 16:38:13;;;;;;;0.00;0.00;;;;;;;13.33;78.84;101229.50;15860949;28;20048;-53
2024/02/15 16:45:50;;;;;;;0.30;0.30;;;;;;;13.15;79.51;101234.75;15848747;28;20092;-51
2024/02/15 16:53:25;;;;;;;0.00;0.00;;;;;;;13.12;79.56;101219.03;15867943;28;20117;-48
2024/02/15 17:01:05;;;;;;;0.40;0.38;;;;;;;13.24;79.39;101238.91;15870192;28;20040;-52
2024/02/15 17:08:42;;;;;;;0.88;0.43;;;;;;;13.10;79.80;101229.19;15870130;28;20051;-49
2024/02/15 17:16:16;;;;;;;0.00;0.00;;;;;;;13.15;79.72;101223.97;15864708;28;20047;-51
2024/02/15 17:23:51;;;;;;;0.00;0.00;;;;;;;12.86;80.60;101236.13;15849510;28;20060;-48
2024/02/15 17:31:25;;;;;;;0.00;0.00;;;;;;;13.08;79.33;101237.50;15863400;28;20040;-51
2024/02/15 17:39:01;;;;;;;0.68;0.30;;;;;;;13.14;79.44;101238.50;15861621;28;20127;-54
2024/02/15 17:46:35;;;;;;;0.38;0.22;;;;;;;13.11;79.60;101234.38;15865528;28;20184;-49
2024/02/15 17:54:09;;;;;;;0.00;0.00;;;;;;;12.98;79.95;101226.34;15871415;28;20573;-52
2024/02/15 18:01:43;;;;;;;0.00;0.00;;;;;;;13.00;80.12;101217.00;15875255;28;20043;-53
2024/02/15 18:09:18;;;;;;;0.10;0.10;;;;;;;12.73;81.29;101223.56;15876255;28;20108;-50
2024/02/15 18:16:52;;;;;;;0.00;0.00;;;;;;;12.79;81.11;101224.56;15885310;28;20046;-54
2024/02/15 18:24:27;;;;;;;0.00;0.00;;;;;;;12.74;81.35;101222.53;15874783;28;20143;-52
2024/02/15 18:32:01;;;;;;;0.00;0.00;;;;;;;12.79;80.55;101217.31;15870228;28;20044;-49
2024/02/15 18:39:36;;;;;;;0.22;0.13;;;;;;;12.90;80.48;101207.72;15870679;28;20449;-55
2024/02/15 18:47:10;;;;;;;0.30;0.20;;;;;;;12.86;80.53;101217.28;15869202;28;20183;-50
2024/02/15 18:54:46;;;;;;;0.00;0.00;;;;;;;12.66;81.34;101215.50;15866831;28;20044;-51
2024/02/15 19:02:20;;;;;;;0.00;0.00;;;;;;;12.90;80.46;101211.25;15866304;28;20043;-49
2024/02/15 19:10:01;;;;;;;0.05;0.05;;;;;;;12.78;80.47;101204.91;15869157;28;20070;-47
2024/02/15 19:17:34;;;;;;;0.22;0.22;;;;;;;12.87;80.33;101194.69;15850981;28;20047;-48
2024/02/15 19:25:17;;;;;;;0.00;0.00;;;;;;;12.69;81.27;101198.91;15866462;28;20028;-49
2024/02/15 19:32:50;;;;;;;0.45;0.45;;;;;;;12.91;79.66;101199.44;15865805;28;20043;-51
2024/02/15 19:40:28;;;;;;;0.00;0.00;;;;;;;12.76;79.97;101196.19;15862881;28;20074;-51
2024/02/15 19:48:09;;;;;;;0.70;0.32;;;;;;;12.87;79.93;101190.16;15866439;28;20081;-52
2024/02/15 19:55:44;;;;;;;0.00;0.00;;;;;;;12.78;80.16;101188.72;15867619;28;20070;-52
2024/02/15 20:03:19;;;;;;;0.00;0.00;;;;;;;12.99;79.08;101193.81;15863380;28;20113;-50
2024/02/15 20:10:55;;;;;;;0.00;0.00;;;;;;;12.68;79.99;101193.72;15871047;28;20089;-50
2024/02/15 20:18:30;;;;;;;0.85;0.63;;;;;;;12.71;79.72;101202.22;15884129;28;20407;-57
2024/02/15 20:26:07;;;;;;;0.10;0.10;;;;;;;12.68;80.23;101199.09;15877183;28;20436;-50
2024/02/15 20:33:44;;;;;;;0.57;0.47;;;;;;;12.68;80.05;101207.19;15865464;28;20043;-52
2024/02/15 20:41:22;;;;;;;0.10;0.10;;;;;;;12.44;80.73;101200.63;15863436;28;20044;-52
2024/02/15 20:48:56;;;;;;;0.13;0.13;;;;;;;12.35;81.70;101188.44;15862968;28;20127;-52
2024/02/15 20:56:33;;;;;;;0.43;0.10;;;;;;;12.50;80.20;101186.34;15862355;28;20122;-51
2024/02/15 21:04:10;;;;;;;0.00;0.00;;;;;;;12.44;80.61;101189.88;15864245;28;20531;-53
2024/02/15 21:11:45;;;;;;;0.00;0.00;;;;;;;12.81;78.94;101179.38;15862272;28;20139;-52
2024/02/15 21:19:19;;;;;;;0.00;0.00;;;;;;;12.46;79.86;101183.25;15860664;28;20667;-55
2024/02/15 21:26:55;;;;;;;0.00;0.00;;;;;;;12.38;80.91;101179.94;15869222;28;20108;-56
2024/02/15 21:34:30;;;;;;;0.05;0.05;;;;;;;12.10;81.15;101174.84;15872541;28;20039;-52
2024/02/15 21:42:05;;;;;;;0.00;0.00;;;;;;;11.81;82.25;101171.53;15869958;28;20049;-54
2024/02/15 21:49:41;;;;;;;0.32;0.22;;;;;;;11.62;82.88;101175.06;15868700;28;20438;-53
2024/02/15 21:57:16;;;;;;;0.30;0.28;;;;;;;11.38;83.59;101171.09;15879969;22;20397;-48
2024/02/15 22:04:50;;;;;;;0.55;0.45;;;;;;;11.31;84.10;101173.78;15742373;28;20124;-49
2024/02/15 22:12:25;;;;;;;0.38;0.25;;;;;;;11.13;84.07;101168.97;15806808;28;20040;-49
2024/02/15 22:19:58;;;;;;;0.00;0.00;;;;;;;11.07;84.14;101167.13;15785112;28;20062;-49
2024/02/15 22:27:34;;;;;;;0.00;0.00;;;;;;;10.96;83.73;101176.59;15805718;28;20072;-51
2024/02/15 22:35:08;;;;;;;0.50;0.50;;;;;;;10.68;85.18;101174.00;15805658;28;20040;-50
2024/02/15 22:42:50;;;;;;;0.55;0.55;;;;;;;10.69;85.01;101169.47;15803096;28;20090;-50
2024/02/15 22:50:23;;;;;;;0.57;0.57;;;;;;;10.58;85.05;101162.78;15799931;28;20052;-48
2024/02/15 22:57:58;;;;;;;0.40;0.22;;;;;;;10.78;83.96;101173.63;15799792;28;20048;-48
2024/02/15 23:05:32;;;;;;;0.00;0.00;;;;;;;10.52;84.65;101168.16;15777214;28;20072;-49
2024/02/15 23:13:10;;;;;;;0.98;0.20;;;;;;;10.63;83.99;101160.38;15798447;28;20044;-49
2024/02/15 23:20:43;;;;;;;0.00;0.00;;;;;;;10.63;83.59;101160.38;15798091;28;20048;-48
2024/02/15 23:28:19;;;;;;;0.28;0.25;;;;;;;10.90;81.80;101155.06;15798157;28;20101;-50
2024/02/15 23:43:42;;;;;;;3.63;1.52;;;;;;;10.39;83.51;101172.41;15752415;28;20484;-52
2024/02/15 23:51:16;;;;;;;0.00;0.00;;;;;;;10.47;82.22;101153.47;15798860;28;20074;-47
2024/02/15 23:58:51;;;;;;;;;;;;;;;10.40;82.18;101152.63;15800592;28;20044;-49
